Time,TemperatureF,DewpointF,PressureIn,WindDirection,WindDirectionDegrees,WindSpeedMPH,WindSpeedGustMPH,Humidity,HourlyPrecipIn,Conditions,Clouds,dailyrainin,SoftwareType,DateUTC
2013-06-07 00:03:00,64.0,56.0,30.06,NNW,345,0.0,1.0,74,0.00,,,0.00,,2013-06-07 05:03:00,
2013-06-07 00:12:00,64.0,56.0,30.06,NNW,345,0.0,1.0,74,0.00,,,0.00,,2013-06-07 05:12:00,
2013-06-07 00:22:00,64.0,56.0,30.06,NNW,345,0.0,1.0,74,0.00,,,0.00,,2013-06-07 05:22:00,
2013-06-07 00:52:00,63.0,55.0,30.07,NNE,25,0.0,2.0,74,0.00,,,0.00,,2013-06-07 05:52:00,
2013-06-07 01:02:00,63.0,54.0,30.07,NE,49,0.0,2.0,73,0.00,,,0.00,,2013-06-07 06:02:00,
2013-06-07 01:12:00,63.0,54.0,30.07,NE,49,0.0,2.0,73,0.00,,,0.00,,2013-06-07 06:12:00,
2013-06-07 01:22:00,63.0,54.0,30.07,NE,49,0.0,2.0,73,0.00,,,0.00,,2013-06-07 06:22:00,
2013-06-07 01:32:00,61.0,55.0,30.07,NE,49,0.0,0.0,80,0.00,,,0.00,,2013-06-07 06:32:00,
2013-06-07 01:42:00,61.0,55.0,30.07,NE,49,0.0,0.0,80,0.00,,,0.00,,2013-06-07 06:42:00,
2013-06-07 01:52:00,61.0,55.0,30.07,NE,49,0.0,0.0,80,0.00,,,0.00,,2013-06-07 06:52:00,
2013-06-07 02:02:00,60.0,54.0,30.06,NE,50,0.0,0.0,82,0.00,,,0.00,,2013-06-07 07:02:00,
2013-06-07 02:12:00,60.0,54.0,30.06,NE,50,0.0,0.0,82,0.00,,,0.00,,2013-06-07 07:12:00,
2013-06-07 02:22:00,59.0,54.0,30.06,NE,49,0.0,0.0,83,0.00,,,0.00,,2013-06-07 07:22:00,
2013-06-07 02:32:00,58.0,54.0,30.06,NE,48,0.0,0.0,85,0.00,,,0.00,,2013-06-07 07:32:00,
2013-06-07 02:42:00,58.0,54.0,30.06,NE,48,0.0,0.0,85,0.00,,,0.00,,2013-06-07 07:42:00,
2013-06-07 02:52:00,58.0,54.0,30.06,NE,48,0.0,0.0,85,0.00,,,0.00,,2013-06-07 07:52:00,
2013-06-07 03:02:00,57.0,53.0,30.06,SW,236,0.0,1.0,88,0.00,,,0.00,,2013-06-07 08:02:00,
2013-06-07 03:12:00,57.0,53.0,30.06,SW,236,0.0,1.0,88,0.00,,,0.00,,2013-06-07 08:12:00,
2013-06-07 03:22:00,57.0,54.0,30.07,SW,236,0.0,1.0,89,0.00,,,0.00,,2013-06-07 08:22:00,
2013-06-07 03:31:00,56.0,53.0,30.07,West,278,0.0,0.0,89,0.00,,,0.00,,2013-06-07 08:31:00,
2013-06-07 03:32:00,57.0,54.0,30.07,SW,236,0.0,1.0,89,0.00,,,0.00,,2013-06-07 08:32:00,
2013-06-07 03:42:00,57.0,54.0,30.07,SW,236,0.0,1.0,89,0.00,,,0.00,,2013-06-07 08:42:00,
2013-06-07 03:52:00,56.0,53.0,30.07,West,278,0.0,0.0,89,0.00,,,0.00,,2013-06-07 08:52:00,
2013-06-07 04:02:00,56.0,53.0,30.07,West,278,0.0,0.0,89,0.00,,,0.00,,2013-06-07 09:02:00,
2013-06-07 04:12:00,56.0,53.0,30.07,West,278,0.0,0.0,89,0.00,,,0.00,,2013-06-07 09:12:00,
2013-06-07 04:22:00,56.0,53.0,30.07,West,278,0.0,0.0,89,0.00,,,0.00,,2013-06-07 09:22:00,
2013-06-07 05:23:00,57.0,53.0,30.06,NW,321,0.0,0.0,87,0.00,,,0.00,,2013-06-07 10:23:00,
2013-06-07 05:33:00,57.0,53.0,30.07,NW,318,0.0,1.0,87,0.00,,,0.00,,2013-06-07 10:33:00,
2013-06-07 05:43:00,57.0,53.0,30.07,NW,318,0.0,1.0,87,0.00,,,0.00,,2013-06-07 10:43:00,
2013-06-07 05:53:00,57.0,53.0,30.07,NW,318,0.0,1.0,87,0.00,,,0.00,,2013-06-07 10:53:00,
2013-06-07 06:02:00,55.0,52.0,30.07,WNW,297,0.0,1.0,89,0.00,,,0.00,,2013-06-07 11:02:00,
2013-06-07 06:12:00,55.0,52.0,30.07,WNW,297,0.0,1.0,89,0.00,,,0.00,,2013-06-07 11:12:00,
2013-06-07 06:22:00,55.0,52.0,30.07,WNW,297,0.0,1.0,89,0.00,,,0.00,,2013-06-07 11:22:00,
2013-06-07 06:32:00,55.0,52.0,30.07,WNW,297,0.0,1.0,89,0.00,,,0.00,,2013-06-07 11:32:00,
2013-06-07 06:42:00,55.0,52.0,30.07,WNW,297,0.0,1.0,89,0.00,,,0.00,,2013-06-07 11:42:00,
2013-06-07 06:52:00,55.0,53.0,30.08,WNW,297,0.0,0.0,92,0.00,,,0.00,,2013-06-07 11:52:00,
2013-06-07 07:02:00,55.0,53.0,30.08,WNW,297,0.0,0.0,92,0.00,,,0.00,,2013-06-07 12:02:00,
2013-06-07 07:12:00,55.0,53.0,30.08,WNW,297,0.0,0.0,92,0.00,,,0.00,,2013-06-07 12:12:00,
2013-06-07 07:22:00,55.0,53.0,30.08,WNW,297,0.0,0.0,92,0.00,,,0.00,,2013-06-07 12:22:00,
2013-06-07 07:32:00,57.0,53.0,30.08,North,358,0.0,2.0,85,0.00,,,0.00,,2013-06-07 12:32:00,
2013-06-07 07:42:00,57.0,53.0,30.08,North,358,0.0,2.0,85,0.00,,,0.00,,2013-06-07 12:42:00,
2013-06-07 07:52:00,58.0,53.0,30.09,NW,305,0.0,2.0,84,0.00,,,0.00,,2013-06-07 12:52:00,
2013-06-07 08:02:00,59.0,54.0,30.09,NE,52,1.0,2.0,83,0.00,,,0.00,,2013-06-07 13:02:00,
2013-06-07 08:12:00,59.0,54.0,30.09,NE,52,1.0,2.0,83,0.00,,,0.00,,2013-06-07 13:12:00,
2013-06-07 08:22:00,60.0,54.0,30.08,NW,325,0.0,1.0,81,0.00,,,0.00,,2013-06-07 13:22:00,
2013-06-07 08:31:00,64.0,55.0,30.09,ENE,62,1.0,4.0,73,0.00,,,0.00,,2013-06-07 13:31:00,
2013-06-07 08:32:00,63.0,55.0,30.09,ENE,77,0.0,2.0,76,0.00,,,0.00,,2013-06-07 13:32:00,
2013-06-07 08:42:00,63.0,55.0,30.09,ENE,77,0.0,2.0,76,0.00,,,0.00,,2013-06-07 13:42:00,
2013-06-07 08:52:00,64.0,55.0,30.09,ENE,62,1.0,4.0,73,0.00,,,0.00,,2013-06-07 13:52:00,
2013-06-07 09:02:00,64.0,55.0,30.09,ENE,62,1.0,4.0,73,0.00,,,0.00,,2013-06-07 14:02:00,
2013-06-07 09:12:00,64.0,55.0,30.09,ENE,62,1.0,4.0,73,0.00,,,0.00,,2013-06-07 14:12:00,
2013-06-07 09:22:00,64.0,55.0,30.09,ENE,62,1.0,4.0,73,0.00,,,0.00,,2013-06-07 14:22:00,
2013-06-07 09:42:00,68.0,56.0,30.10,East,79,0.0,5.0,66,0.00,,,0.00,,2013-06-07 14:42:00,
2013-06-07 09:52:00,68.0,56.0,30.10,East,79,0.0,5.0,66,0.00,,,0.00,,2013-06-07 14:52:00,
2013-06-07 10:02:00,69.0,55.0,30.10,ESE,115,1.0,5.0,61,0.00,,,0.00,,2013-06-07 15:02:00,
2013-06-07 10:12:00,69.0,55.0,30.10,ESE,115,1.0,5.0,61,0.00,,,0.00,,2013-06-07 15:12:00,
2013-06-07 10:22:00,69.0,55.0,30.10,ESE,115,1.0,5.0,61,0.00,,,0.00,,2013-06-07 15:22:00,
2013-06-07 10:33:00,69.0,55.0,30.10,ESE,115,1.0,5.0,61,0.00,,,0.00,,2013-06-07 15:33:00,
2013-06-07 10:43:00,69.0,55.0,30.10,ESE,115,1.0,5.0,61,0.00,,,0.00,,2013-06-07 15:43:00,
2013-06-07 10:53:00,72.0,56.0,30.09,SSE,162,0.0,6.0,57,0.00,,,0.00,,2013-06-07 15:53:00,
2013-06-07 11:03:00,72.0,54.0,30.08,SE,143,5.0,6.0,53,0.00,,,0.00,,2013-06-07 16:03:00,
2013-06-07 11:13:00,72.0,54.0,30.08,SE,143,5.0,6.0,53,0.00,,,0.00,,2013-06-07 16:13:00,
2013-06-07 11:22:00,72.0,54.0,30.08,SE,143,5.0,6.0,53,0.00,,,0.00,,2013-06-07 16:22:00,
2013-06-07 11:33:00,72.0,54.0,30.08,SE,143,5.0,6.0,53,0.00,,,0.00,,2013-06-07 16:33:00,
2013-06-07 11:43:00,72.0,54.0,30.08,SE,143,5.0,6.0,53,0.00,,,0.00,,2013-06-07 16:43:00,
2013-06-07 11:53:00,74.0,54.0,30.08,NE,39,7.0,8.0,50,0.00,,,0.00,,2013-06-07 16:53:00,
2013-06-07 12:03:00,74.0,54.0,30.08,NE,39,7.0,8.0,50,0.00,,,0.00,,2013-06-07 17:03:00,
2013-06-07 12:12:00,74.0,54.0,30.08,NE,39,7.0,8.0,50,0.00,,,0.00,,2013-06-07 17:12:00,
2013-06-07 12:22:00,74.0,54.0,30.08,NE,39,7.0,8.0,50,0.00,,,0.00,,2013-06-07 17:22:00,
2013-06-07 12:31:00,76.0,54.0,30.06,NNW,332,6.0,6.0,47,0.00,,,0.00,,2013-06-07 17:31:00,
2013-06-07 12:32:00,74.0,53.0,30.06,ENE,67,2.0,6.0,48,0.00,,,0.00,,2013-06-07 17:32:00,
2013-06-07 12:43:00,74.0,53.0,30.06,ENE,67,2.0,6.0,48,0.00,,,0.00,,2013-06-07 17:43:00,
2013-06-07 12:52:00,76.0,54.0,30.06,NNW,332,6.0,6.0,47,0.00,,,0.00,,2013-06-07 17:52:00,
2013-06-07 13:06:00,76.0,54.0,30.06,NNW,332,6.0,6.0,47,0.00,,,0.00,,2013-06-07 18:06:00,
2013-06-07 13:17:00,76.0,54.0,30.06,NNW,332,6.0,6.0,47,0.00,,,0.00,,2013-06-07 18:17:00,
2013-06-07 13:23:00,76.0,54.0,30.06,NNW,332,6.0,6.0,47,0.00,,,0.00,,2013-06-07 18:23:00,
2013-06-07 14:07:00,77.0,53.0,30.03,ENE,72,0.0,7.0,44,0.00,,,0.00,,2013-06-07 19:07:00,
2013-06-07 14:15:00,77.0,53.0,30.03,ENE,72,0.0,7.0,44,0.00,,,0.00,,2013-06-07 19:15:00,
2013-06-07 14:28:00,77.0,54.0,30.03,East,84,1.0,6.0,45,0.00,,,0.00,,2013-06-07 19:28:00,
2013-06-07 14:35:00,78.0,54.0,30.03,SE,125,0.0,4.0,43,0.00,,,0.00,,2013-06-07 19:35:00,
2013-06-07 14:46:00,78.0,54.0,30.03,SE,125,0.0,4.0,43,0.00,,,0.00,,2013-06-07 19:46:00,
2013-06-07 14:57:00,78.0,54.0,30.03,SE,125,0.0,4.0,43,0.00,,,0.00,,2013-06-07 19:57:00,
2013-06-07 15:06:00,78.0,54.0,30.02,NE,53,1.0,5.0,43,0.00,,,0.00,,2013-06-07 20:06:00,
2013-06-07 15:14:00,78.0,54.0,30.02,NE,53,1.0,5.0,43,0.00,,,0.00,,2013-06-07 20:14:00,
2013-06-07 15:38:00,79.0,55.0,30.01,WSW,248,2.0,6.0,43,0.00,,,0.00,,2013-06-07 20:38:00,
2013-06-07 15:45:00,79.0,55.0,30.01,WSW,248,2.0,6.0,43,0.00,,,0.00,,2013-06-07 20:45:00,
2013-06-07 15:58:00,79.0,55.0,30.01,WSW,248,2.0,6.0,43,0.00,,,0.00,,2013-06-07 20:58:00,
2013-06-07 16:05:00,78.0,54.0,30.01,NNE,23,2.0,6.0,44,0.00,,,0.00,,2013-06-07 21:05:00,
2013-06-07 16:27:00,78.0,55.0,30.00,NW,309,2.0,6.0,45,0.00,,,0.00,,2013-06-07 21:27:00,
2013-06-07 16:38:00,78.0,55.0,30.00,NW,309,2.0,6.0,45,0.00,,,0.00,,2013-06-07 21:38:00,
2013-06-07 16:44:00,78.0,55.0,30.00,NW,309,2.0,6.0,45,0.00,,,0.00,,2013-06-07 21:44:00,
2013-06-07 17:00:00,78.0,55.0,30.00,NW,309,2.0,6.0,45,0.00,,,0.00,,2013-06-07 22:00:00,
2013-06-07 17:07:00,78.0,56.0,29.99,South,186,5.0,5.0,46,0.00,,,0.00,,2013-06-07 22:07:00,
2013-06-07 17:21:00,78.0,56.0,29.99,South,186,5.0,5.0,46,0.00,,,0.00,,2013-06-07 22:21:00,
2013-06-07 17:28:00,77.0,55.0,29.98,SSE,158,1.0,7.0,47,0.00,,,0.00,,2013-06-07 22:28:00,
2013-06-07 17:37:00,78.0,56.0,29.98,ESE,113,2.0,6.0,47,0.00,,,0.00,,2013-06-07 22:37:00,
2013-06-07 17:45:00,78.0,56.0,29.98,ESE,113,2.0,6.0,47,0.00,,,0.00,,2013-06-07 22:45:00,
2013-06-07 17:59:00,80.0,56.0,29.97,SSE,150,0.0,7.0,44,0.00,,,0.00,,2013-06-07 22:59:00,
2013-06-07 18:05:00,80.0,56.0,29.97,SSE,150,0.0,7.0,44,0.00,,,0.00,,2013-06-07 23:05:00,
2013-06-07 18:18:00,80.0,56.0,29.97,SSE,150,0.0,7.0,44,0.00,,,0.00,,2013-06-07 23:18:00,
2013-06-07 18:27:00,79.0,56.0,29.96,SE,139,0.0,3.0,46,0.00,,,0.00,,2013-06-07 23:27:00,
2013-06-07 18:36:00,79.0,57.0,29.95,ESE,110,2.0,3.0,47,0.00,,,0.00,,2013-06-07 23:36:00,
2013-06-07 18:54:00,79.0,57.0,29.95,ESE,110,2.0,3.0,47,0.00,,,0.00,,2013-06-07 23:54:00,
2013-06-07 19:02:00,80.0,57.0,29.95,ESE,121,3.0,5.0,45,0.00,,,0.00,,2013-06-08 00:02:00,
2013-06-07 19:08:00,80.0,57.0,29.95,SSE,161,2.0,7.0,45,0.00,,,0.00,,2013-06-08 00:08:00,
2013-06-07 19:15:00,80.0,57.0,29.95,SSE,161,2.0,7.0,45,0.00,,,0.00,,2013-06-08 00:15:00,
2013-06-07 19:26:00,80.0,57.0,29.95,SSE,161,2.0,7.0,45,0.00,,,0.00,,2013-06-08 00:26:00,
2013-06-07 19:34:00,80.0,57.0,29.95,SSE,161,2.0,7.0,45,0.00,,,0.00,,2013-06-08 00:34:00,
2013-06-07 19:44:00,80.0,57.0,29.95,SSE,161,2.0,7.0,45,0.00,,,0.00,,2013-06-08 00:44:00,
2013-06-07 20:07:00,78.0,56.0,29.94,SSE,159,3.0,7.0,47,0.00,,,0.00,,2013-06-08 01:07:00,
2013-06-07 20:27:00,78.0,57.0,29.95,SE,128,1.0,8.0,49,0.00,,,0.00,,2013-06-08 01:27:00,
2013-06-07 20:38:00,77.0,57.0,29.95,SE,145,2.0,7.0,51,0.00,,,0.00,,2013-06-08 01:38:00,
2013-06-07 20:44:00,77.0,57.0,29.95,SE,145,2.0,7.0,51,0.00,,,0.00,,2013-06-08 01:44:00,
2013-06-07 21:00:00,76.0,57.0,29.95,SE,131,0.0,4.0,52,0.00,,,0.00,,2013-06-08 02:00:00,
2013-06-07 21:01:00,74.0,57.0,29.95,ESE,115,2.0,6.0,55,0.00,,,0.00,,2013-06-08 02:01:00,
2013-06-07 21:08:00,76.0,57.0,29.95,SE,131,0.0,4.0,52,0.00,,,0.00,,2013-06-08 02:08:00,
2013-06-07 21:14:00,76.0,57.0,29.95,SE,131,0.0,4.0,52,0.00,,,0.00,,2013-06-08 02:14:00,
2013-06-07 21:28:00,74.0,57.0,29.95,ESE,115,2.0,6.0,55,0.00,,,0.00,,2013-06-08 02:28:00,
2013-06-07 21:33:00,74.0,57.0,29.95,ESE,115,2.0,6.0,55,0.00,,,0.00,,2013-06-08 02:33:00,
2013-06-07 21:49:00,74.0,57.0,29.95,ESE,115,2.0,6.0,55,0.00,,,0.00,,2013-06-08 02:49:00,
2013-06-07 21:59:00,74.0,57.0,29.95,ESE,115,2.0,6.0,55,0.00,,,0.00,,2013-06-08 02:59:00,
2013-06-07 22:01:00,71.0,58.0,29.97,SE,142,1.0,4.0,63,0.00,,,0.00,,2013-06-08 03:01:00,
2013-06-07 22:27:00,71.0,58.0,29.97,SE,142,1.0,4.0,63,0.00,,,0.00,,2013-06-08 03:27:00,
2013-06-07 22:40:00,71.0,58.0,29.97,SE,142,1.0,4.0,63,0.00,,,0.00,,2013-06-08 03:40:00,
2013-06-07 22:53:00,71.0,58.0,29.97,SE,142,1.0,4.0,63,0.00,,,0.00,,2013-06-08 03:53:00,
2013-06-07 23:00:00,71.0,58.0,29.97,SE,142,1.0,4.0,63,0.00,,,0.00,,2013-06-08 04:00:00,
2013-06-07 23:53:00,69.0,57.0,29.96,SSE,167,0.0,7.0,66,0.00,,,0.00,,2013-06-08 04:53:00,